Time;durP1;ratioP1;P1;durP2;ratioP2;P2;SDS_P1;SDS_P2;PMS_P1;PMS_P2;Temp;Humidity;BMP_temperature;BMP_pressure;BME280_temperature;BME280_humidity;BME280_pressure;Samples;Min_cycle;Max_cycle;Signal;HPM_P1;HPM_P2
2023/05/19 00:02:43;;;;;;;0.30;0.30;;;22.70;40.00;;;;;;6336757;28;20111;-50
2023/05/19 00:05:48;;;;;;;0.50;0.30;;;22.50;40.20;;;;;;6340400;28;20040;-53
2023/05/19 00:08:55;;;;;;;0.32;0.30;;;22.10;40.10;;;;;;6342967;28;20036;-52
2023/05/19 00:11:57;;;;;;;0.32;0.30;;;22.50;40.20;;;;;;6305651;28;20152;-53
2023/05/19 00:14:58;;;;;;;0.35;0.22;;;22.70;40.50;;;;;;6341992;28;20088;-53
2023/05/19 00:18:00;;;;;;;0.30;0.30;;;22.60;40.50;;;;;;6342470;28;20039;-51
2023/05/19 00:21:05;;;;;;;0.68;0.40;;;22.60;40.60;;;;;;6341129;28;20039;-53
2023/05/19 00:24:07;;;;;;;0.52;0.30;;;22.50;40.70;;;;;;6342544;28;20040;-52
2023/05/19 00:27:08;;;;;;;0.50;0.40;;;22.50;40.80;;;;;;6337993;28;20035;-50
2023/05/19 00:30:11;;;;;;;;;;;22.40;40.90;;;;;;6337397;28;20035;-51
2023/05/19 00:33:13;;;;;;;0.35;0.20;;;22.40;39.10;;;;;;6341327;28;19920;-51
2023/05/19 00:36:18;;;;;;;0.30;0.30;;;22.50;41.10;;;;;;6342079;28;20046;-52
2023/05/19 00:39:19;;;;;;;0.68;0.43;;;22.40;41.40;;;;;;6342223;28;20085;-53
2023/05/19 00:42:21;;;;;;;;;;;22.60;41.10;;;;;;6339046;28;20036;-51
2023/05/19 00:45:24;;;;;;;0.30;0.30;;;22.60;41.50;;;;;;6338686;28;19924;-52
2023/05/19 00:48:26;;;;;;;0.32;0.32;;;22.50;41.70;;;;;;6340695;28;20039;-53
2023/05/19 00:51:28;;;;;;;0.50;0.40;;;22.60;41.50;;;;;;6302694;28;20563;-53
2023/05/19 00:54:32;;;;;;;0.50;0.40;;;22.40;41.60;;;;;;6341522;28;20036;-52
2023/05/19 00:57:34;;;;;;;0.45;0.43;;;22.30;41.50;;;;;;6341420;28;20028;-53
2023/05/19 01:00:37;;;;;;;0.30;0.30;;;21.80;41.90;;;;;;6329965;28;20043;-53
2023/05/19 01:03:41;;;;;;;0.60;0.40;;;22.40;42.30;;;;;;6340716;28;20051;-51
2023/05/19 01:06:44;;;;;;;0.40;0.20;;;22.60;42.90;;;;;;6339251;28;20074;-52
2023/05/19 01:09:46;;;;;;;0.50;0.32;;;22.40;42.40;;;;;;6341269;28;20117;-53
2023/05/19 01:12:48;;;;;;;0.35;0.30;;;22.00;51.40;;;;;;6339625;28;20047;-53
2023/05/19 01:15:58;;;;;;;0.65;0.40;;;22.40;41.90;;;;;;6336086;28;20089;-53
2023/05/19 01:19:09;;;;;;;0.30;0.25;;;22.20;41.60;;;;;;6338942;28;20139;-53
2023/05/19 01:22:29;;;;;;;0.47;0.40;;;21.70;41.40;;;;;;6335684;28;20740;-52
2023/05/19 01:25:56;;;;;;;0.40;0.20;;;22.10;41.70;;;;;;6338203;28;20031;-53
2023/05/19 01:29:13;;;;;;;0.68;0.45;;;22.20;42.00;;;;;;6338523;28;20115;-52
2023/05/19 01:32:21;;;;;;;0.30;0.30;;;21.20;41.50;;;;;;6338885;28;20085;-52
2023/05/19 01:35:25;;;;;;;0.35;0.30;;;22.20;41.80;;;;;;6338598;28;20517;-51
2023/05/19 01:38:28;;;;;;;0.43;0.30;;;22.30;42.00;;;;;;6320397;28;20498;-53
2023/05/19 01:41:31;;;;;;;0.30;0.20;;;22.40;42.10;;;;;;6320008;28;20038;-52
2023/05/19 01:44:33;;;;;;;0.68;0.38;;;22.20;42.10;;;;;;6337956;28;20043;-52
2023/05/19 01:47:37;;;;;;;0.35;0.35;;;22.20;42.20;;;;;;6337546;28;20048;-51
2023/05/19 01:50:39;;;;;;;0.45;0.40;;;22.20;42.10;;;;;;6339332;28;20458;-52
2023/05/19 01:53:40;;;;;;;0.52;0.30;;;22.20;42.30;;;;;;6303446;28;20046;-52
2023/05/19 01:56:46;;;;;;;;;;;22.20;42.40;;;;;;6339774;28;20476;-52
2023/05/19 01:59:56;;;;;;;0.57;0.40;;;22.10;42.60;;;;;;6332603;28;20381;-52
2023/05/19 02:03:11;;;;;;;0.38;0.30;;;22.10;42.30;;;;;;6322816;28;20031;-52
2023/05/19 02:06:26;;;;;;;0.35;0.25;;;22.10;42.40;;;;;;6339812;28;20062;-53
2023/05/19 02:09:38;;;;;;;0.60;0.52;;;22.20;42.60;;;;;;6340212;28;20088;-54
2023/05/19 02:12:40;;;;;;;0.60;0.47;;;22.20;42.70;;;;;;6306734;28;20074;-53
2023/05/19 02:15:44;;;;;;;0.60;0.45;;;22.20;42.90;;;;;;6322261;28;20036;-52
2023/05/19 02:18:46;;;;;;;0.40;0.40;;;22.20;42.80;;;;;;6339638;28;20047;-52
2023/05/19 02:21:48;;;;;;;0.52;0.35;;;22.20;43.00;;;;;;6336939;28;20045;-51
2023/05/19 02:24:50;;;;;;;;;;;22.20;43.20;;;;;;6340220;28;20043;-53
2023/05/19 02:27:52;;;;;;;0.38;0.30;;;22.00;43.20;;;;;;6338856;28;20019;-51
2023/05/19 02:30:53;;;;;;;0.50;0.38;;;21.90;43.20;;;;;;6318444;28;20763;-51
2023/05/19 02:33:57;;;;;;;0.60;0.40;;;22.10;43.30;;;;;;6338671;28;20040;-52
2023/05/19 02:36:58;;;;;;;0.68;0.50;;;22.20;43.50;;;;;;6338240;28;20035;-50
2023/05/19 02:40:01;;;;;;;0.43;0.30;;;22.00;43.40;;;;;;6338719;28;20063;-51
2023/05/19 02:43:04;;;;;;;0.25;0.25;;;22.00;43.70;;;;;;6340062;28;20496;-50
2023/05/19 02:46:05;;;;;;;;;;;21.80;43.60;;;;;;6340249;28;20270;-50
2023/05/19 02:49:07;;;;;;;0.35;0.32;;;22.00;43.90;;;;;;6339217;28;20008;-52
2023/05/19 02:52:09;;;;;;;0.45;0.32;;;21.90;43.60;;;;;;6339400;28;20035;-51
2023/05/19 02:55:15;;;;;;;0.55;0.30;;;22.00;43.80;;;;;;6339095;28;20126;-51
2023/05/19 02:58:17;;;;;;;0.25;0.22;;;22.00;43.90;;;;;;6337876;28;20053;-52
2023/05/19 03:01:20;;;;;;;0.57;0.50;;;22.00;43.90;;;;;;6339076;28;20039;-54
2023/05/19 03:04:22;;;;;;;0.50;0.40;;;22.00;44.00;;;;;;6339034;28;20046;-50
2023/05/19 03:07:23;;;;;;;0.63;0.40;;;21.70;44.20;;;;;;6321988;28;20054;-52
2023/05/19 03:10:25;;;;;;;0.63;0.50;;;21.90;43.90;;;;;;6339445;28;20403;-50
2023/05/19 03:13:26;;;;;;;;;;;22.20;44.40;;;;;;6339507;28;20039;-51
2023/05/19 03:16:31;;;;;;;0.52;0.50;;;22.00;44.50;;;;;;6338965;28;19958;-50
2023/05/19 03:19:34;;;;;;;0.73;0.35;;;21.90;44.30;;;;;;6339720;28;20061;-53
2023/05/19 03:22:37;;;;;;;0.75;0.40;;;22.00;44.30;;;;;;6338991;28;20034;-53
2023/05/19 03:25:38;;;;;;;;;;;21.90;44.60;;;;;;6339880;28;20075;-51
2023/05/19 03:28:42;;;;;;;0.85;0.40;;;21.90;44.60;;;;;;6338663;28;20525;-53
2023/05/19 03:31:44;;;;;;;0.30;0.30;;;22.00;44.40;;;;;;6338964;28;20266;-53
2023/05/19 03:34:48;;;;;;;0.68;0.40;;;21.70;44.30;;;;;;6339025;28;20044;-51
2023/05/19 03:37:50;;;;;;;0.40;0.35;;;21.90;44.50;;;;;;6335253;28;20039;-51
2023/05/19 03:40:52;;;;;;;0.45;0.45;;;21.90;44.30;;;;;;6334713;28;20469;-52
2023/05/19 03:43:53;;;;;;;0.40;0.40;;;22.00;44.60;;;;;;6338604;28;20395;-52
2023/05/19 03:46:55;;;;;;;;;;;22.00;44.60;;;;;;6339743;28;20031;-52
2023/05/19 03:50:13;;;;;;;0.63;0.60;;;22.10;45.60;;;;;;6338239;28;19969;-53
2023/05/19 03:53:29;;;;;;;0.57;0.50;;;21.90;44.40;;;;;;6335508;28;20523;-52
2023/05/19 03:56:31;;;;;;;0.57;0.50;;;21.40;42.40;;;;;;6333350;28;20039;-53
2023/05/19 03:59:34;;;;;;;0.50;0.35;;;21.80;44.50;;;;;;6334857;28;20028;-53
2023/05/19 04:02:38;;;;;;;0.68;0.50;;;21.90;44.70;;;;;;6334659;28;20024;-54
2023/05/19 04:05:42;;;;;;;0.50;0.40;;;21.90;44.60;;;;;;6337142;28;20111;-51
2023/05/19 04:08:43;;;;;;;0.52;0.40;;;21.80;44.60;;;;;;6332782;28;20058;-52
2023/05/19 04:11:45;;;;;;;;;;;21.80;44.60;;;;;;6337951;28;20097;-52
2023/05/19 04:14:48;;;;;;;0.88;0.40;;;22.10;45.00;;;;;;6338875;28;19927;-52
2023/05/19 04:17:49;;;;;;;0.35;0.35;;;21.90;44.60;;;;;;6337923;28;20613;-54
2023/05/19 04:20:53;;;;;;;0.40;0.40;;;21.90;44.70;;;;;;6336512;28;20117;-54
2023/05/19 04:23:54;;;;;;;0.60;0.50;;;21.80;44.60;;;;;;6337879;28;20050;-53
2023/05/19 04:26:56;;;;;;;;;;;21.80;44.60;;;;;;6337252;28;20298;-52
2023/05/19 04:29:58;;;;;;;0.55;0.35;;;21.70;44.60;;;;;;6337826;28;19969;-54
2023/05/19 04:33:00;;;;;;;0.40;0.40;;;21.80;44.80;;;;;;6337691;28;20661;-53
2023/05/19 04:36:04;;;;;;;0.60;0.50;;;21.80;44.70;;;;;;6337070;28;20766;-53
2023/05/19 04:39:08;;;;;;;0.75;0.40;;;21.80;44.60;;;;;;6336982;28;20027;-54
2023/05/19 04:42:12;;;;;;;0.88;0.60;;;21.80;44.50;;;;;;6337496;28;20089;-53
2023/05/19 04:45:14;;;;;;;0.50;0.40;;;21.80;44.70;;;;;;6337777;28;20031;-54
2023/05/19 04:48:22;;;;;;;0.32;0.30;;;21.90;44.60;;;;;;6336783;28;20059;-52
2023/05/19 04:51:26;;;;;;;0.63;0.40;;;22.00;44.80;;;;;;6340142;28;20046;-54
2023/05/19 04:54:30;;;;;;;0.77;0.47;;;21.90;44.70;;;;;;6340454;28;20444;-54
2023/05/19 04:57:32;;;;;;;0.50;0.47;;;21.90;44.80;;;;;;6341048;28;20032;-51
2023/05/19 05:00:34;;;;;;;0.50;0.45;;;21.80;44.60;;;;;;6341203;28;20153;-54
2023/05/19 05:03:40;;;;;;;0.52;0.50;;;21.30;44.60;;;;;;6341355;28;20501;-54
2023/05/19 05:06:47;;;;;;;0.65;0.40;;;21.50;44.70;;;;;;6288965;28;20039;-50
2023/05/19 05:09:49;;;;;;;0.40;0.30;;;21.90;45.00;;;;;;6337404;28;20032;-54
2023/05/19 05:12:52;;;;;;;0.47;0.43;;;21.80;44.90;;;;;;6341456;28;20469;-54
2023/05/19 05:15:54;;;;;;;0.30;0.30;;;21.20;44.70;;;;;;6341653;28;20051;-54
2023/05/19 05:19:00;;;;;;;0.50;0.30;;;21.80;44.80;;;;;;6341611;28;20040;-53
2023/05/19 05:22:04;;;;;;;0.45;0.32;;;21.80;44.80;;;;;;6323300;28;20044;-52
2023/05/19 05:25:07;;;;;;;0.60;0.30;;;21.70;44.60;;;;;;6338472;28;20070;-52
2023/05/19 05:28:08;;;;;;;0.60;0.40;;;21.70;44.70;;;;;;6338585;28;20757;-54
2023/05/19 05:31:11;;;;;;;0.55;0.40;;;21.80;44.70;;;;;;6341647;28;20502;-54
2023/05/19 05:34:14;;;;;;;0.43;0.40;;;21.40;44.70;;;;;;6341292;28;20063;-54
2023/05/19 05:37:17;;;;;;;0.60;0.40;;;21.40;43.60;;;;;;6288831;28;20538;-54
2023/05/19 05:40:19;;;;;;;0.55;0.40;;;21.70;44.90;;;;;;6340761;28;20445;-55
2023/05/19 05:43:22;;;;;;;0.20;0.20;;;21.80;44.80;;;;;;6337912;28;20114;-54
2023/05/19 05:46:33;;;;;;;0.85;0.40;;;21.40;44.80;;;;;;6340743;28;20054;-54
2023/05/19 05:49:36;;;;;;;0.47;0.40;;;21.50;44.60;;;;;;6339612;28;20136;-54
2023/05/19 05:52:40;;;;;;;0.43;0.40;;;21.80;45.10;;;;;;6339918;28;20040;-53
2023/05/19 05:55:44;;;;;;;0.43;0.30;;;21.60;45.00;;;;;;6303948;28;20056;-55
2023/05/19 05:58:45;;;;;;;0.90;0.40;;;21.70;45.00;;;;;;6338787;28;20035;-53
2023/05/19 06:01:46;;;;;;;;;;;21.40;45.00;;;;;;6338961;28;20036;-55
2023/05/19 06:04:52;;;;;;;0.75;0.43;;;21.40;45.20;;;;;;6337349;28;20432;-52
2023/05/19 06:07:55;;;;;;;0.40;0.30;;;21.10;44.70;;;;;;6333889;28;20115;-51
2023/05/19 06:11:07;;;;;;;0.50;0.30;;;21.70;45.20;;;;;;6332089;28;20098;-52
2023/05/19 06:14:12;;;;;;;0.52;0.52;;;21.80;45.10;;;;;;6336373;28;20074;-53
2023/05/19 06:17:28;;;;;;;0.40;0.38;;;21.90;45.50;;;;;;6333133;28;20068;-54
2023/05/19 06:20:29;;;;;;;;;;;21.80;45.30;;;;;;6336291;28;20147;-54
2023/05/19 06:23:33;;;;;;;0.70;0.40;;;20.50;44.90;;;;;;6337246;28;19919;-55
2023/05/19 06:26:34;;;;;;;0.50;0.50;;;21.50;45.30;;;;;;6332769;28;20035;-54
2023/05/19 06:29:36;;;;;;;;;;;21.90;45.70;;;;;;6336325;28;20027;-54
2023/05/19 06:32:42;;;;;;;0.52;0.35;;;21.50;45.70;;;;;;6336393;28;19969;-54
2023/05/19 06:35:46;;;;;;;0.43;0.30;;;21.90;45.60;;;;;;6336832;28;20591;-53
2023/05/19 06:38:51;;;;;;;0.75;0.63;;;21.50;45.30;;;;;;6336512;28;20047;-54
2023/05/19 06:41:56;;;;;;;0.73;0.40;;;21.70;45.60;;;;;;6335624;28;20128;-53
2023/05/19 06:45:21;;;;;;;0.38;0.38;;;21.70;45.40;;;;;;6331979;28;20142;-54
2023/05/19 06:48:25;;;;;;;0.57;0.50;;;21.70;45.60;;;;;;6334461;28;20490;-54
2023/05/19 06:51:30;;;;;;;0.88;0.50;;;21.30;45.40;;;;;;6331670;28;20051;-54
2023/05/19 06:54:32;;;;;;;0.60;0.40;;;21.70;45.60;;;;;;6332092;28;20565;-53
2023/05/19 06:57:34;;;;;;;0.47;0.47;;;21.80;45.80;;;;;;6318019;28;20063;-53
2023/05/19 07:00:36;;;;;;;0.60;0.55;;;21.70;46.00;;;;;;6309316;28;20042;-55
2023/05/19 07:03:40;;;;;;;0.55;0.55;;;21.40;45.70;;;;;;6303465;28;20037;-54
2023/05/19 07:06:43;;;;;;;0.40;0.40;;;21.80;45.90;;;;;;6332359;28;20038;-53
2023/05/19 07:09:45;;;;;;;0.70;0.40;;;21.80;45.70;;;;;;6326974;28;20047;-55
2023/05/19 07:12:47;;;;;;;0.35;0.30;;;21.70;45.80;;;;;;6332422;28;20036;-53
2023/05/19 07:15:55;;;;;;;0.65;0.50;;;21.80;47.40;;;;;;6331914;28;20039;-54
2023/05/19 07:18:56;;;;;;;0.32;0.30;;;21.90;43.90;;;;;;6329768;28;20073;-54
2023/05/19 07:22:00;;;;;;;0.63;0.50;;;21.90;45.80;;;;;;6335128;28;20433;-54
2023/05/19 07:25:03;;;;;;;0.57;0.40;;;22.00;45.80;;;;;;6280311;28;20426;-52
2023/05/19 07:28:07;;;;;;;0.65;0.30;;;22.10;45.70;;;;;;6333910;28;20043;-51
2023/05/19 07:31:09;;;;;;;0.55;0.40;;;21.50;45.50;;;;;;6334815;28;20054;-54
2023/05/19 07:34:11;;;;;;;0.43;0.43;;;21.90;45.80;;;;;;6334317;28;20055;-53
2023/05/19 07:37:12;;;;;;;;;;;22.00;45.90;;;;;;6329612;28;20059;-54
2023/05/19 07:40:14;;;;;;;0.47;0.28;;;21.60;45.90;;;;;;6335592;28;19920;-54
2023/05/19 07:43:16;;;;;;;0.50;0.50;;;22.00;45.90;;;;;;6331566;28;20067;-53
2023/05/19 07:46:18;;;;;;;0.47;0.35;;;21.60;45.30;;;;;;6333227;28;20618;-52
2023/05/19 07:49:20;;;;;;;0.50;0.50;;;21.90;46.20;;;;;;6331350;28;20043;-52
2023/05/19 07:52:21;;;;;;;;;;;21.70;45.70;;;;;;6334918;28;20036;-54
2023/05/19 07:55:25;;;;;;;0.93;0.40;;;22.20;46.30;;;;;;6335421;28;19931;-54
2023/05/19 07:58:26;;;;;;;0.45;0.43;;;22.10;45.80;;;;;;6332611;28;20522;-54
2023/05/19 08:01:29;;;;;;;0.70;0.30;;;21.60;45.70;;;;;;6335342;28;20117;-54
2023/05/19 08:04:30;;;;;;;0.55;0.43;;;22.00;46.00;;;;;;6332622;28;20823;-53
2023/05/19 08:07:37;;;;;;;0.63;0.40;;;21.50;45.90;;;;;;6324256;28;20673;-54
2023/05/19 08:10:39;;;;;;;0.95;0.50;;;22.20;44.40;;;;;;6334121;28;20043;-53
2023/05/19 08:13:40;;;;;;;0.65;0.45;;;22.00;46.30;;;;;;6328455;28;20085;-53
2023/05/19 08:16:42;;;;;;;;;;;22.10;46.30;;;;;;6331369;28;20535;-52
2023/05/19 08:19:44;;;;;;;0.57;0.50;;;23.40;47.10;;;;;;6329280;28;19920;-53
2023/05/19 08:22:46;;;;;;;0.57;0.45;;;22.10;46.60;;;;;;6330303;28;20028;-54
2023/05/19 08:25:48;;;;;;;0.63;0.50;;;22.10;46.50;;;;;;6335614;28;20039;-53
2023/05/19 08:28:50;;;;;;;0.60;0.40;;;22.20;46.30;;;;;;6321057;28;20124;-54
2023/05/19 08:31:51;;;;;;;;;;;22.20;46.50;;;;;;6339519;28;20725;-55
2023/05/19 08:34:53;;;;;;;;;;;22.00;46.50;;;;;;6338435;28;20445;-53
2023/05/19 08:37:54;;;;;;;0.70;0.50;;;22.30;46.70;;;;;;6338673;28;19926;-54
2023/05/19 08:40:57;;;;;;;0.68;0.40;;;22.20;46.40;;;;;;6335520;28;20039;-52
2023/05/19 08:43:58;;;;;;;0.85;0.50;;;22.00;46.40;;;;;;6335415;28;20073;-52
2023/05/19 08:47:01;;;;;;;;;;;22.20;46.50;;;;;;6334400;28;20043;-53
2023/05/19 08:50:06;;;;;;;0.80;0.50;;;22.40;46.90;;;;;;6335337;28;20002;-52
2023/05/19 08:53:12;;;;;;;0.98;0.50;;;22.20;46.50;;;;;;6317576;28;20754;-51
2023/05/19 08:56:34;;;;;;;0.80;0.50;;;21.70;46.20;;;;;;6331477;28;20066;-53
2023/05/19 08:59:40;;;;;;;0.40;0.38;;;22.20;46.60;;;;;;6299952;28;20457;-53
2023/05/19 09:02:42;;;;;;;0.88;0.50;;;21.50;46.00;;;;;;6332479;28;20085;-54
2023/05/19 09:06:03;;;;;;;0.95;0.63;;;22.30;46.70;;;;;;6333607;28;20123;-53
2023/05/19 09:09:05;;;;;;;0.35;0.35;;;22.30;46.60;;;;;;6335384;28;20066;-54
2023/05/19 09:12:07;;;;;;;0.70;0.40;;;22.30;46.60;;;;;;6338539;28;20545;-55
2023/05/19 09:15:09;;;;;;;0.65;0.55;;;21.80;46.30;;;;;;6337361;28;20036;-55
2023/05/19 09:18:13;;;;;;;0.50;0.50;;;22.30;46.50;;;;;;6337232;28;20093;-54
2023/05/19 09:21:15;;;;;;;0.65;0.45;;;22.40;46.50;;;;;;6320290;28;20065;-55
2023/05/19 09:24:17;;;;;;;0.60;0.50;;;22.40;46.60;;;;;;6338409;28;20065;-54
2023/05/19 09:27:22;;;;;;;0.52;0.40;;;22.40;46.90;;;;;;6335146;28;20070;-54
2023/05/19 09:30:24;;;;;;;0.63;0.50;;;22.30;46.90;;;;;;6334413;28;20072;-56
2023/05/19 09:33:27;;;;;;;0.68;0.60;;;22.40;46.60;;;;;;6333080;28;20601;-55
2023/05/19 09:36:28;;;;;;;0.85;0.40;;;22.20;46.40;;;;;;6336420;28;20043;-55
2023/05/19 09:39:31;;;;;;;0.60;0.60;;;22.30;46.50;;;;;;6332423;28;20494;-56
2023/05/19 09:42:39;;;;;;;0.52;0.50;;;22.40;46.30;;;;;;6330163;28;20656;-55
2023/05/19 09:45:43;;;;;;;0.43;0.40;;;22.40;46.40;;;;;;6312677;28;20274;-53
2023/05/19 09:48:45;;;;;;;0.82;0.57;;;22.40;46.40;;;;;;6329924;28;20276;-55
2023/05/19 09:51:49;;;;;;;0.57;0.38;;;22.10;46.70;;;;;;6334138;28;20044;-53
2023/05/19 09:54:53;;;;;;;0.65;0.43;;;22.00;45.90;;;;;;6335840;28;20458;-55
2023/05/19 09:57:55;;;;;;;0.70;0.57;;;22.50;46.20;;;;;;6336977;28;20039;-52
2023/05/19 10:00:59;;;;;;;0.40;0.30;;;22.40;46.00;;;;;;6333994;28;20040;-55
2023/05/19 10:04:03;;;;;;;0.95;0.50;;;22.50;46.00;;;;;;6335580;28;20066;-55
2023/05/19 10:07:09;;;;;;;0.40;0.40;;;22.60;45.80;;;;;;6335829;28;20295;-55
2023/05/19 10:10:12;;;;;;;0.70;0.50;;;22.00;45.50;;;;;;6333201;28;20084;-54
2023/05/19 10:13:16;;;;;;;0.52;0.47;;;22.50;45.60;;;;;;6334738;28;20032;-54
2023/05/19 10:16:18;;;;;;;0.75;0.50;;;22.60;45.60;;;;;;6327913;28;20681;-53
2023/05/19 10:19:22;;;;;;;0.65;0.45;;;22.50;45.40;;;;;;6334140;28;20647;-55
2023/05/19 10:22:23;;;;;;;0.60;0.40;;;22.60;45.30;;;;;;6331246;28;20036;-54
2023/05/19 10:25:25;;;;;;;;;;;22.70;45.40;;;;;;6331405;28;20043;-55
2023/05/19 10:28:36;;;;;;;0.93;0.40;;;22.70;45.50;;;;;;6333384;28;19923;-55
2023/05/19 10:31:39;;;;;;;0.50;0.50;;;22.50;45.00;;;;;;6335303;28;20039;-55
2023/05/19 10:35:07;;;;;;;0.50;0.40;;;22.70;45.00;;;;;;6333158;28;20161;-55
2023/05/19 10:38:21;;;;;;;0.80;0.60;;;22.60;44.90;;;;;;6331397;28;20092;-54
2023/05/19 10:41:32;;;;;;;0.50;0.50;;;22.70;44.80;;;;;;6333755;28;20039;-55
2023/05/19 10:44:45;;;;;;;0.93;0.60;;;22.70;44.80;;;;;;6331126;28;20075;-51
2023/05/19 10:47:49;;;;;;;0.82;0.50;;;22.20;44.50;;;;;;6332801;28;20044;-54
2023/05/19 10:50:53;;;;;;;0.73;0.60;;;22.70;44.80;;;;;;6331542;28;20032;-53
2023/05/19 10:53:57;;;;;;;1.13;0.75;;;22.70;44.50;;;;;;6313779;28;20032;-56
2023/05/19 10:57:02;;;;;;;0.95;0.50;;;22.70;44.50;;;;;;6333883;28;20351;-55
2023/05/19 11:00:25;;;;;;;0.40;0.38;;;22.60;44.40;;;;;;6326777;28;20514;-55
2023/05/19 11:03:28;;;;;;;0.50;0.50;;;22.90;44.20;;;;;;6331840;28;20042;-56
2023/05/19 11:06:34;;;;;;;0.57;0.57;;;22.90;44.10;;;;;;6328136;28;20063;-54
2023/05/19 11:09:42;;;;;;;0.85;0.45;;;23.00;43.90;;;;;;6332466;28;20547;-55
2023/05/19 11:12:44;;;;;;;0.80;0.47;;;23.10;43.80;;;;;;6332510;28;20034;-55
2023/05/19 11:15:49;;;;;;;0.50;0.40;;;22.70;43.60;;;;;;6327006;28;20539;-53
2023/05/19 11:18:53;;;;;;;0.55;0.55;;;22.80;43.40;;;;;;6296734;28;20032;-53
2023/05/19 11:21:56;;;;;;;0.63;0.45;;;22.40;42.90;;;;;;6313603;28;20039;-54
2023/05/19 11:24:57;;;;;;;0.65;0.50;;;22.90;43.00;;;;;;6304659;28;20044;-54
2023/05/19 11:27:59;;;;;;;0.70;0.55;;;23.00;42.90;;;;;;6332705;28;20426;-53
2023/05/19 11:31:01;;;;;;;0.60;0.57;;;23.00;42.80;;;;;;6334469;28;20468;-51
2023/05/19 11:34:06;;;;;;;0.90;0.70;;;23.10;42.70;;;;;;6313275;28;20061;-54
2023/05/19 11:37:10;;;;;;;0.70;0.68;;;23.20;42.60;;;;;;6329859;28;20059;-54
2023/05/19 11:40:14;;;;;;;0.75;0.60;;;22.60;42.30;;;;;;6313350;28;20063;-53
2023/05/19 11:43:16;;;;;;;0.95;0.60;;;23.20;42.40;;;;;;6333988;28;20518;-54
2023/05/19 11:46:18;;;;;;;0.68;0.40;;;23.20;42.30;;;;;;6328973;28;20092;-53
2023/05/19 11:49:19;;;;;;;0.68;0.50;;;23.00;42.10;;;;;;6280198;28;20074;-52
2023/05/19 11:52:22;;;;;;;0.88;0.70;;;23.20;42.10;;;;;;6331553;28;20522;-55
2023/05/19 11:55:24;;;;;;;0.60;0.60;;;23.20;42.00;;;;;;6332061;28;20032;-55
2023/05/19 11:58:27;;;;;;;0.60;0.47;;;23.20;42.00;;;;;;6327535;28;20092;-53
2023/05/19 12:01:30;;;;;;;0.70;0.50;;;22.90;41.70;;;;;;6338904;28;20038;-53
2023/05/19 12:04:32;;;;;;;0.65;0.57;;;23.30;41.90;;;;;;6337407;28;20040;-50
2023/05/19 12:07:33;;;;;;;0.63;0.60;;;23.30;41.80;;;;;;6337127;28;20043;-54
2023/05/19 12:10:35;;;;;;;0.77;0.65;;;24.00;42.00;;;;;;6332307;28;20121;-54
2023/05/19 12:13:40;;;;;;;0.80;0.60;;;23.20;41.50;;;;;;6330808;28;20713;-55
2023/05/19 12:16:42;;;;;;;0.82;0.60;;;23.50;41.50;;;;;;6333669;28;20031;-54
2023/05/19 12:19:44;;;;;;;0.90;0.70;;;23.40;41.30;;;;;;6333896;28;20096;-53
2023/05/19 12:22:47;;;;;;;0.60;0.50;;;23.00;41.00;;;;;;6317724;28;20525;-55
2023/05/19 12:25:48;;;;;;;0.90;0.70;;;23.40;41.10;;;;;;6336764;28;20050;-55
2023/05/19 12:28:51;;;;;;;0.90;0.60;;;23.30;40.90;;;;;;6338053;28;20043;-55
2023/05/19 12:31:54;;;;;;;0.85;0.70;;;23.10;40.70;;;;;;6335436;28;20038;-55
2023/05/19 12:34:56;;;;;;;0.80;0.70;;;23.40;40.70;;;;;;6330856;28;20444;-53
2023/05/19 12:38:02;;;;;;;1.13;0.60;;;23.60;40.80;;;;;;6331760;28;20032;-53
2023/05/19 12:41:04;;;;;;;1.23;0.70;;;23.60;40.60;;;;;;6335983;28;20035;-54
2023/05/19 12:44:14;;;;;;;0.73;0.57;;;23.40;40.50;;;;;;6335207;28;20032;-54
2023/05/19 12:47:18;;;;;;;0.93;0.68;;;23.70;40.70;;;;;;6333804;28;20513;-55
2023/05/19 12:50:20;;;;;;;0.73;0.60;;;23.60;40.70;;;;;;6316683;28;20051;-52
2023/05/19 12:53:21;;;;;;;0.82;0.70;;;23.60;40.80;;;;;;6332566;28;20093;-52
2023/05/19 12:56:25;;;;;;;0.70;0.60;;;23.60;41.10;;;;;;6336205;28;20411;-53
2023/05/19 12:59:33;;;;;;;0.70;0.70;;;23.70;40.90;;;;;;6318062;28;20070;-53
2023/05/19 13:02:54;;;;;;;;;;;23.70;40.90;;;;;;6335604;28;20036;-55
2023/05/19 13:05:58;;;;;;;0.70;0.50;;;23.40;40.90;;;;;;6313689;28;20578;-54
2023/05/19 13:09:00;;;;;;;0.80;0.60;;;23.40;40.90;;;;;;6330790;28;20120;-55
2023/05/19 13:12:03;;;;;;;0.60;0.50;;;23.70;41.20;;;;;;6334914;28;20039;-54
2023/05/19 13:15:05;;;;;;;0.75;0.60;;;23.70;41.20;;;;;;6333703;28;20047;-54
2023/05/19 13:18:10;;;;;;;0.80;0.75;;;23.50;41.00;;;;;;6330136;28;20066;-53
2023/05/19 13:21:12;;;;;;;1.27;0.90;;;23.80;40.90;;;;;;6333065;28;20063;-54
2023/05/19 13:24:14;;;;;;;0.90;0.63;;;23.80;41.20;;;;;;6318688;28;20285;-53
2023/05/19 13:27:15;;;;;;;;;;;23.70;41.20;;;;;;6327348;28;20036;-54
2023/05/19 13:30:17;;;;;;;0.40;0.40;;;23.90;41.40;;;;;;6331312;28;20514;-54
2023/05/19 13:33:19;;;;;;;1.13;0.90;;;23.70;41.20;;;;;;6335112;28;20081;-54
2023/05/19 13:36:25;;;;;;;0.80;0.80;;;23.80;41.20;;;;;;6332165;28;20035;-52
2023/05/19 13:39:26;;;;;;;0.90;0.70;;;23.70;41.30;;;;;;6332676;28;20434;-55
2023/05/19 13:42:28;;;;;;;0.70;0.70;;;23.90;41.50;;;;;;6331601;28;20043;-53
2023/05/19 13:45:29;;;;;;;1.25;0.85;;;23.80;41.40;;;;;;6315449;28;20039;-54
2023/05/19 13:48:32;;;;;;;1.00;0.70;;;23.90;41.50;;;;;;6333876;28;20040;-55
2023/05/19 13:51:33;;;;;;;0.80;0.70;;;24.00;41.60;;;;;;6332398;28;20044;-55
2023/05/19 13:54:34;;;;;;;;;;;23.90;41.50;;;;;;6328657;28;20035;-53
2023/05/19 13:57:37;;;;;;;0.65;0.50;;;24.00;41.80;;;;;;6323276;28;19927;-55
2023/05/19 14:00:38;;;;;;;0.77;0.60;;;23.90;41.50;;;;;;6327855;28;20032;-54
2023/05/19 14:03:40;;;;;;;1.05;0.77;;;24.00;41.60;;;;;;6326350;28;20065;-54
2023/05/19 14:06:44;;;;;;;0.90;0.70;;;24.00;41.70;;;;;;6327277;28;20384;-54
2023/05/19 14:09:49;;;;;;;0.80;0.77;;;23.80;41.90;;;;;;6325511;28;20035;-54
2023/05/19 14:12:54;;;;;;;0.77;0.68;;;23.90;41.80;;;;;;6332930;28;20039;-54
2023/05/19 14:16:16;;;;;;;0.93;0.70;;;23.80;41.60;;;;;;6300171;28;20032;-53
2023/05/19 14:19:28;;;;;;;0.90;0.57;;;24.00;41.70;;;;;;6308628;28;20035;-55
2023/05/19 14:22:30;;;;;;;0.90;0.70;;;24.10;41.80;;;;;;6309205;28;20084;-55
2023/05/19 14:25:31;;;;;;;1.13;0.68;;;24.00;41.80;;;;;;6321553;28;20036;-54
2023/05/19 14:28:33;;;;;;;0.93;0.82;;;24.20;41.90;;;;;;6329051;28;20100;-55
2023/05/19 14:31:34;;;;;;;0.90;0.70;;;23.90;41.90;;;;;;6331503;28;20667;-54
2023/05/19 14:34:37;;;;;;;0.85;0.82;;;24.00;41.90;;;;;;6332796;28;20039;-53
2023/05/19 14:37:38;;;;;;;0.82;0.80;;;24.00;41.90;;;;;;6334095;28;20056;-55
2023/05/19 14:40:43;;;;;;;0.80;0.70;;;24.20;42.00;;;;;;6335069;28;20115;-55
2023/05/19 14:43:44;;;;;;;1.30;0.80;;;24.20;42.00;;;;;;6332837;28;20040;-55
2023/05/19 14:46:47;;;;;;;1.17;0.90;;;24.10;42.00;;;;;;6334166;28;20097;-54
2023/05/19 14:49:50;;;;;;;0.88;0.73;;;24.10;42.10;;;;;;6328841;28;20032;-52
2023/05/19 14:52:52;;;;;;;0.90;0.50;;;24.10;42.10;;;;;;6327899;28;20449;-54
2023/05/19 14:55:54;;;;;;;1.05;0.82;;;23.90;42.10;;;;;;6330172;28;20077;-52
2023/05/19 14:58:55;;;;;;;0.77;0.60;;;24.20;42.40;;;;;;6329277;28;20096;-55
2023/05/19 15:01:57;;;;;;;1.00;0.77;;;24.20;42.40;;;;;;6324928;28;20665;-55
2023/05/19 15:04:59;;;;;;;0.70;0.63;;;22.80;41.70;;;;;;6327103;28;20043;-54
2023/05/19 15:08:01;;;;;;;1.00;0.90;;;24.00;42.20;;;;;;6330157;28;20331;-54
2023/05/19 15:11:03;;;;;;;0.88;0.65;;;24.10;43.00;;;;;;6329519;28;20031;-56
2023/05/19 15:14:05;;;;;;;0.70;0.65;;;24.10;42.40;;;;;;6328061;28;20120;-55
2023/05/19 15:17:09;;;;;;;0.75;0.70;;;24.20;42.50;;;;;;6330453;28;20047;-55
2023/05/19 15:20:13;;;;;;;0.50;0.50;;;24.20;42.40;;;;;;6331548;28;20112;-55
2023/05/19 15:23:15;;;;;;;0.75;0.63;;;23.80;42.10;;;;;;6307555;28;20042;-55
2023/05/19 15:26:16;;;;;;;0.70;0.68;;;24.20;42.50;;;;;;6306132;28;20032;-54
2023/05/19 15:29:18;;;;;;;0.80;0.80;;;23.70;41.60;;;;;;6306377;28;20063;-55
2023/05/19 15:32:21;;;;;;;0.85;0.80;;;23.10;41.10;;;;;;6306738;28;20042;-53
2023/05/19 15:35:24;;;;;;;0.85;0.73;;;24.20;41.50;;;;;;6329186;28;20048;-55
2023/05/19 15:38:25;;;;;;;0.63;0.60;;;24.40;41.60;;;;;;6327872;28;20040;-53
2023/05/19 15:41:30;;;;;;;0.95;0.85;;;24.00;41.30;;;;;;6327269;28;20038;-54
2023/05/19 15:44:31;;;;;;;1.25;0.90;;;24.30;41.40;;;;;;6325682;28;20047;-54
2023/05/19 15:47:33;;;;;;;1.77;0.70;;;24.30;41.30;;;;;;6328663;28;20051;-55
2023/05/19 15:50:35;;;;;;;0.98;0.77;;;23.80;41.00;;;;;;6328181;28;20089;-53
2023/05/19 15:53:37;;;;;;;1.00;0.80;;;24.50;41.30;;;;;;6325727;28;20317;-56
2023/05/19 15:56:39;;;;;;;0.98;0.88;;;24.00;40.90;;;;;;6329296;28;20032;-54
2023/05/19 15:59:41;;;;;;;0.70;0.60;;;24.30;41.10;;;;;;6291669;28;20055;-55
2023/05/19 16:02:42;;;;;;;0.80;0.70;;;24.40;41.00;;;;;;6325996;28;20351;-55
2023/05/19 16:05:48;;;;;;;0.70;0.70;;;24.40;41.00;;;;;;6329270;28;20330;-53